Time;durP1;ratioP1;P1;durP2;ratioP2;P2;SDS_P1;SDS_P2;PMS_P1;PMS_P2;Temp;Humidity;BMP_temperature;BMP_pressure;BME280_temperature;BME280_humidity;BME280_pressure;Samples;Min_cycle;Max_cycle;Signal;HPM_P1;HPM_P2
2022/01/10 00:00:37;;;;;;;16.13;7.03;;;1.80;98.80;;;;;;5112812;28;20088;-73
2022/01/10 00:03:04;;;;;;;11.33;6.03;;;1.80;98.90;;;;;;5116879;28;20058;-74
2022/01/10 00:05:29;;;;;;;23.33;6.87;;;1.80;98.90;;;;;;5117026;28;20019;-73
2022/01/10 00:07:55;;;;;;;14.70;6.60;;;1.70;98.90;;;;;;5115333;28;20026;-73
2022/01/10 00:10:21;;;;;;;21.30;8.33;;;1.70;98.90;;;;;;5095364;28;20388;-73
2022/01/10 00:12:47;;;;;;;21.87;8.13;;;1.70;98.90;;;;;;5096651;28;20064;-73
2022/01/10 00:15:16;;;;;;;20.17;6.90;;;1.70;99.00;;;;;;5095409;28;20085;-73
2022/01/10 00:17:45;;;;;;;18.87;6.93;;;1.70;99.00;;;;;;5095053;28;20100;-76
2022/01/10 00:20:13;;;;;;;17.93;6.50;;;1.70;99.00;;;;;;5096229;28;20049;-77
2022/01/10 00:22:40;;;;;;;18.60;6.87;;;1.60;99.00;;;;;;5078499;28;20531;-77
2022/01/10 00:25:06;;;;;;;17.37;6.47;;;1.60;99.00;;;;;;5095703;28;20089;-76
2022/01/10 00:27:32;;;;;;;16.00;7.40;;;1.60;99.00;;;;;;5095216;28;20024;-76
2022/01/10 00:29:58;;;;;;;15.13;7.23;;;1.60;99.10;;;;;;5096208;28;20030;-77
2022/01/10 00:32:24;;;;;;;21.17;6.70;;;1.50;99.20;;;;;;5094368;28;20028;-77
2022/01/10 00:34:51;;;;;;;15.03;6.53;;;1.60;99.20;;;;;;5094357;28;20028;-77
2022/01/10 00:37:17;;;;;;;15.90;6.57;;;1.60;99.20;;;;;;5078026;28;20024;-77
2022/01/10 00:39:43;;;;;;;17.83;7.33;;;1.50;99.20;;;;;;5077723;28;20028;-77
2022/01/10 00:42:08;;;;;;;16.37;6.73;;;1.50;99.10;;;;;;5096345;28;20020;-77
2022/01/10 00:44:39;;;;;;;17.50;7.47;;;1.50;99.10;;;;;;5094952;28;20017;-77
2022/01/10 00:47:05;;;;;;;15.67;6.37;;;1.50;99.10;;;;;;5078758;28;20115;-77
2022/01/10 00:49:31;;;;;;;13.67;6.57;;;1.50;99.20;;;;;;5094566;28;20139;-77
2022/01/10 00:51:56;;;;;;;15.57;6.57;;;1.50;99.20;;;;;;5094850;28;20035;-77
2022/01/10 00:54:23;;;;;;;16.37;6.53;;;1.40;99.20;;;;;;5077822;28;20048;-77
2022/01/10 00:56:49;;;;;;;16.63;6.13;;;1.40;99.20;;;;;;5095537;28;20092;-76
2022/01/10 00:59:15;;;;;;;15.97;6.53;;;1.40;99.20;;;;;;5110355;28;20055;-77
2022/01/10 01:01:41;;;;;;;18.00;7.40;;;1.40;99.30;;;;;;5114727;28;20063;-76
2022/01/10 01:04:07;;;;;;;19.03;6.80;;;1.30;99.30;;;;;;5114799;28;20368;-77
2022/01/10 01:06:33;;;;;;;13.57;7.13;;;1.40;99.30;;;;;;5114873;28;20114;-77
2022/01/10 01:09:04;;;;;;;16.20;7.20;;;1.30;99.30;;;;;;5097287;28;20027;-76
2022/01/10 01:13:59;;;;;;;17.43;7.30;;;1.30;99.40;;;;;;5116454;28;20036;-77
2022/01/10 01:16:44;;;;;;;18.90;7.07;;;1.20;99.30;;;;;;5097827;28;20125;-77
2022/01/10 01:24:29;;;;;;;14.40;6.40;;;1.20;99.40;;;;;;5115962;28;20038;-74
2022/01/10 01:26:54;;;;;;;18.57;6.90;;;1.20;99.50;;;;;;5115484;28;20031;-73
2022/01/10 01:29:23;;;;;;;19.00;7.23;;;1.20;99.50;;;;;;5115678;28;20122;-73
2022/01/10 01:31:49;;;;;;;15.17;6.17;;;1.20;99.50;;;;;;5115121;28;20099;-73
2022/01/10 01:34:16;;;;;;;19.47;7.80;;;1.20;99.50;;;;;;5113979;28;20030;-73
2022/01/10 01:36:47;;;;;;;16.23;6.93;;;1.10;99.70;;;;;;5115095;28;20027;-73
2022/01/10 01:39:20;;;;;;;16.30;6.53;;;1.10;99.50;;;;;;5113924;28;20024;-73
2022/01/10 01:41:46;;;;;;;13.93;6.50;;;1.10;99.50;;;;;;5097749;28;20023;-73
2022/01/10 01:44:12;;;;;;;11.83;6.60;;;1.10;99.50;;;;;;5114919;28;20011;-73
2022/01/10 01:46:39;;;;;;;17.03;6.30;;;1.00;99.50;;;;;;5114157;28;20032;-73
2022/01/10 01:49:06;;;;;;;12.23;6.10;;;1.00;99.50;;;;;;5115141;28;20092;-73
2022/01/10 01:51:33;;;;;;;13.33;6.60;;;1.00;99.80;;;;;;5114581;28;20034;-73
2022/01/10 01:53:59;;;;;;;13.80;6.33;;;1.00;99.50;;;;;;5113622;28;20031;-73
2022/01/10 01:56:25;;;;;;;14.97;7.07;;;1.00;99.50;;;;;;5115171;28;20398;-73
2022/01/10 01:58:53;;;;;;;17.80;7.30;;;1.00;99.60;;;;;;5113320;28;20048;-73
2022/01/10 02:01:19;;;;;;;16.50;7.13;;;1.00;99.60;;;;;;5114431;28;20031;-73
2022/01/10 02:03:46;;;;;;;13.80;7.00;;;0.90;99.60;;;;;;5114448;28;20057;-74
2022/01/10 02:06:13;;;;;;;15.30;7.27;;;0.90;99.60;;;;;;5113203;28;20035;-73
2022/01/10 02:08:39;;;;;;;14.93;7.17;;;0.90;99.60;;;;;;5096390;28;20024;-73
2022/01/10 02:11:07;;;;;;;14.73;8.50;;;0.90;99.60;;;;;;5113370;28;20381;-73
2022/01/10 02:13:34;;;;;;;12.70;7.07;;;0.90;99.60;;;;;;5113449;28;20023;-73
2022/01/10 02:18:26;;;;;;;18.37;7.50;;;0.80;99.70;;;;;;5113513;28;20027;-73
2022/01/10 02:20:52;;;;;;;15.97;7.50;;;0.90;99.70;;;;;;5112936;28;20032;-73
2022/01/10 02:23:18;;;;;;;12.97;7.10;;;0.80;99.70;;;;;;5113046;28;20384;-73
2022/01/10 02:25:46;;;;;;;16.13;7.17;;;0.80;99.70;;;;;;5096253;28;20027;-73
2022/01/10 02:28:11;;;;;;;13.87;7.60;;;0.80;99.70;;;;;;5114210;28;20019;-74
2022/01/10 02:30:37;;;;;;;15.10;7.43;;;0.80;99.80;;;;;;5112933;28;20031;-73
2022/01/10 02:33:04;;;;;;;17.97;7.50;;;0.80;99.80;;;;;;5095957;28;20502;-73
2022/01/10 02:35:40;;;;;;;13.30;7.67;;;0.80;99.80;;;;;;5114138;28;20068;-73
2022/01/10 02:38:06;;;;;;;15.97;8.07;;;0.80;99.80;;;;;;5114113;28;20049;-75
2022/01/10 02:40:33;;;;;;;13.40;7.77;;;0.70;99.80;;;;;;5112770;28;20031;-73
2022/01/10 02:43:00;;;;;;;15.83;7.93;;;0.70;99.80;;;;;;5095983;28;20046;-73
2022/01/10 02:45:26;;;;;;;16.13;8.53;;;0.70;99.80;;;;;;5112702;28;20444;-74
2022/01/10 02:47:52;;;;;;;14.00;8.67;;;0.80;99.80;;;;;;5113839;28;20107;-73
2022/01/10 02:50:19;;;;;;;14.77;8.33;;;0.70;99.80;;;;;;5111561;28;20034;-73
2022/01/10 02:52:45;;;;;;;13.70;8.00;;;0.70;99.80;;;;;;5112284;28;20019;-73
2022/01/10 02:55:12;;;;;;;13.60;7.53;;;0.60;99.80;;;;;;5113563;28;20027;-73
2022/01/10 02:57:38;;;;;;;16.77;8.60;;;0.60;99.80;;;;;;5111661;28;20035;-74
2022/01/10 03:00:08;;;;;;;34.67;9.03;;;0.60;99.80;;;;;;5112430;28;20526;-73
2022/01/10 03:02:34;;;;;;;28.20;9.10;;;0.60;99.90;;;;;;5113508;28;20110;-73
2022/01/10 03:05:00;;;;;;;19.90;9.40;;;0.60;99.80;;;;;;5112457;28;20038;-73
2022/01/10 03:07:27;;;;;;;17.20;9.70;;;0.70;99.90;;;;;;5113647;28;20028;-73
2022/01/10 03:09:53;;;;;;;16.43;8.53;;;0.50;99.80;;;;;;5112075;28;20040;-73
2022/01/10 03:12:19;;;;;;;16.03;9.60;;;0.60;99.90;;;;;;5113947;28;20027;-73
2022/01/10 03:14:45;;;;;;;14.53;8.60;;;0.50;99.90;;;;;;5112320;28;20110;-73
2022/01/10 03:17:12;;;;;;;15.37;9.27;;;0.50;99.90;;;;;;5112271;28;20123;-73
2022/01/10 03:19:39;;;;;;;16.67;9.77;;;0.50;99.90;;;;;;5112527;28;20023;-73
2022/01/10 03:22:06;;;;;;;19.47;10.13;;;0.50;99.90;;;;;;5113640;28;20480;-74
2022/01/10 03:24:31;;;;;;;17.23;10.23;;;0.50;99.90;;;;;;5112256;28;20027;-73
2022/01/10 03:26:57;;;;;;;15.17;9.73;;;0.60;99.90;;;;;;5113798;28;20063;-73
2022/01/10 03:29:23;;;;;;;17.07;10.47;;;0.50;99.90;;;;;;5112547;28;20368;-73
2022/01/10 03:31:49;;;;;;;19.60;10.63;;;0.50;99.90;;;;;;5113464;28;20023;-74
2022/01/10 03:34:15;;;;;;;18.27;10.00;;;0.50;99.90;;;;;;5095785;28;20512;-74
2022/01/10 03:36:42;;;;;;;20.70;10.27;;;0.50;99.90;;;;;;5112472;28;20024;-74
2022/01/10 03:39:09;;;;;;;17.77;10.47;;;0.50;99.90;;;;;;5113434;28;20024;-73
2022/01/10 03:41:35;;;;;;;19.47;10.40;;;0.50;99.90;;;;;;5113490;28;20027;-74
2022/01/10 03:44:02;;;;;;;15.73;9.97;;;0.60;99.90;;;;;;5095454;28;20027;-73
2022/01/10 03:46:29;;;;;;;15.70;10.50;;;0.60;99.90;;;;;;5112393;28;20031;-74
2022/01/10 03:48:54;;;;;;;20.97;10.77;;;0.60;99.90;;;;;;5112613;28;20034;-73
2022/01/10 03:51:20;;;;;;;18.23;9.93;;;0.60;99.90;;;;;;5112362;28;20027;-73
2022/01/10 03:53:46;;;;;;;16.37;9.97;;;0.60;99.90;;;;;;5113618;28;20036;-74
2022/01/10 03:56:12;;;;;;;20.27;11.47;;;0.60;99.90;;;;;;5113364;28;20020;-74
2022/01/10 03:58:37;;;;;;;20.80;11.50;;;0.70;99.90;;;;;;5113418;28;20047;-73
2022/01/10 04:01:05;;;;;;;20.17;11.67;;;0.70;99.90;;;;;;5095583;28;20150;-73
2022/01/10 04:03:31;;;;;;;21.50;11.90;;;0.70;99.90;;;;;;5112714;28;20028;-73
2022/01/10 04:05:58;;;;;;;21.73;12.13;;;0.80;99.90;;;;;;5112185;28;20035;-74
2022/01/10 04:08:24;;;;;;;19.07;11.57;;;0.80;99.90;;;;;;5113369;28;20024;-73
2022/01/10 04:10:51;;;;;;;17.63;10.70;;;0.90;99.90;;;;;;5115677;28;20027;-74
2022/01/10 04:13:16;;;;;;;19.63;10.90;;;0.90;99.90;;;;;;5098677;28;20034;-73
2022/01/10 04:15:42;;;;;;;17.70;11.33;;;0.90;99.90;;;;;;5115897;28;20035;-73
2022/01/10 04:18:08;;;;;;;19.40;11.40;;;1.00;99.90;;;;;;5116956;28;20387;-73
2022/01/10 04:20:33;;;;;;;18.73;11.33;;;1.10;99.90;;;;;;5115737;28;20035;-74
2022/01/10 04:22:59;;;;;;;18.83;11.07;;;1.00;99.90;;;;;;5115336;28;20031;-73
2022/01/10 04:25:25;;;;;;;17.17;11.30;;;1.10;99.90;;;;;;5116614;28;20024;-73
2022/01/10 04:27:51;;;;;;;19.47;10.87;;;1.10;99.90;;;;;;5098103;28;20545;-73
2022/01/10 04:30:16;;;;;;;22.90;12.37;;;1.10;99.90;;;;;;5116665;28;20058;-73
2022/01/10 04:32:43;;;;;;;15.77;10.93;;;1.20;99.90;;;;;;5116430;28;20391;-74
2022/01/10 04:35:10;;;;;;;18.73;11.30;;;1.20;99.90;;;;;;5116694;28;20034;-73
2022/01/10 04:37:36;;;;;;;18.90;12.20;;;1.30;99.90;;;;;;5115060;28;20030;-73
2022/01/10 04:40:02;;;;;;;18.77;12.53;;;1.30;99.90;;;;;;5098102;28;20388;-73
2022/01/10 04:42:28;;;;;;;18.63;11.07;;;1.40;99.90;;;;;;5115273;28;20017;-74
2022/01/10 04:44:53;;;;;;;23.10;12.13;;;1.50;99.90;;;;;;5114958;28;20111;-74
2022/01/10 04:47:19;;;;;;;20.07;11.77;;;1.50;99.90;;;;;;5114977;28;20081;-74
2022/01/10 04:52:20;;;;;;;19.73;12.13;;;1.50;99.90;;;;;;5116387;28;20028;-73
2022/01/10 04:54:46;;;;;;;22.00;11.57;;;1.60;99.90;;;;;;5116433;28;20077;-74
2022/01/10 04:57:11;;;;;;;23.50;12.77;;;1.60;99.90;;;;;;5114883;28;20099;-73
2022/01/10 04:59:37;;;;;;;24.20;12.97;;;1.70;99.90;;;;;;5114860;28;20047;-74
2022/01/10 05:02:03;;;;;;;20.47;12.57;;;1.70;99.90;;;;;;5116157;28;20063;-73
2022/01/10 05:04:28;;;;;;;20.83;12.93;;;1.80;99.90;;;;;;5115743;28;20488;-73
2022/01/10 05:06:54;;;;;;;24.10;13.87;;;1.80;99.90;;;;;;5115577;28;20066;-74
2022/01/10 05:09:20;;;;;;;23.80;15.00;;;1.80;99.90;;;;;;5115688;28;20498;-76
2022/01/10 05:11:46;;;;;;;27.07;13.90;;;1.80;99.90;;;;;;5115471;28;20098;-76
2022/01/10 05:14:12;;;;;;;24.40;13.73;;;1.90;99.90;;;;;;5114548;28;20027;-76
2022/01/10 05:16:43;;;;;;;26.57;14.70;;;1.90;99.90;;;;;;5114311;28;20072;-76
2022/01/10 05:19:09;;;;;;;23.87;14.20;;;2.00;99.90;;;;;;5115092;28;20023;-76
2022/01/10 05:21:35;;;;;;;28.37;14.77;;;2.00;99.90;;;;;;5114285;28;20498;-76
2022/01/10 05:24:01;;;;;;;24.53;14.60;;;2.00;99.90;;;;;;5114522;28;20115;-76
2022/01/10 05:26:27;;;;;;;25.63;14.33;;;2.00;99.90;;;;;;5097101;28;20034;-76
2022/01/10 05:28:54;;;;;;;32.57;14.90;;;2.10;99.90;;;;;;5115710;28;20024;-76
2022/01/10 05:31:21;;;;;;;30.30;15.13;;;2.00;99.90;;;;;;5097522;28;20540;-73
2022/01/10 05:33:47;;;;;;;24.07;14.30;;;2.10;99.90;;;;;;5115466;28;20028;-73
2022/01/10 05:36:13;;;;;;;23.73;14.83;;;2.20;99.90;;;;;;5114117;28;20028;-73
2022/01/10 05:38:38;;;;;;;28.63;14.97;;;2.20;99.90;;;;;;5096935;28;20026;-73
2022/01/10 05:41:04;;;;;;;24.80;15.67;;;2.20;99.90;;;;;;5114031;28;20034;-73
2022/01/10 05:43:30;;;;;;;27.53;15.73;;;2.30;99.90;;;;;;5113975;28;20051;-73
2022/01/10 05:45:55;;;;;;;30.70;16.40;;;2.20;99.90;;;;;;5115084;28;20028;-73
2022/01/10 05:48:24;;;;;;;33.97;16.43;;;2.30;99.90;;;;;;5113858;28;20443;-73
2022/01/10 05:50:50;;;;;;;31.47;17.70;;;2.30;99.90;;;;;;5097531;28;20039;-73
2022/01/10 05:53:16;;;;;;;28.43;17.30;;;2.40;99.90;;;;;;5113681;28;20380;-73
2022/01/10 05:55:42;;;;;;;35.80;17.73;;;2.40;99.90;;;;;;5113633;28;20032;-73
2022/01/10 05:58:07;;;;;;;31.93;18.03;;;2.40;99.90;;;;;;5113540;28;20050;-73
2022/01/10 06:00:34;;;;;;;34.37;18.67;;;2.40;99.90;;;;;;5112159;28;20024;-73
2022/01/10 06:03:00;;;;;;;29.90;16.60;;;2.40;99.90;;;;;;5102720;28;20111;-73
2022/01/10 06:05:30;;;;;;;30.30;18.60;;;2.40;99.90;;;;;;5096477;28;20027;-73
2022/01/10 06:08:01;;;;;;;38.97;19.47;;;2.50;99.90;;;;;;5109422;28;20546;-72
2022/01/10 06:10:27;;;;;;;33.67;18.13;;;2.50;99.90;;;;;;5107532;28;20047;-73
2022/01/10 06:12:53;;;;;;;34.17;19.30;;;2.50;99.90;;;;;;5113679;28;20081;-73
2022/01/10 06:15:19;;;;;;;31.13;17.40;;;2.50;99.90;;;;;;5111575;28;20024;-73
2022/01/10 06:17:44;;;;;;;30.43;18.50;;;2.60;99.90;;;;;;5112836;28;20027;-73
2022/01/10 06:20:10;;;;;;;28.27;17.03;;;2.50;99.90;;;;;;5112446;28;20525;-73
2022/01/10 06:22:36;;;;;;;30.53;17.17;;;2.60;99.90;;;;;;5111439;28;20333;-73
2022/01/10 06:25:04;;;;;;;29.10;17.23;;;2.50;99.90;;;;;;5088330;28;20036;-72
2022/01/10 06:27:30;;;;;;;36.07;17.77;;;2.50;99.90;;;;;;5088679;28;20111;-72
2022/01/10 06:29:56;;;;;;;30.03;17.40;;;2.60;99.90;;;;;;5088703;28;20098;-72
2022/01/10 06:32:22;;;;;;;31.97;17.07;;;2.60;99.90;;;;;;5111702;28;20053;-72
2022/01/10 06:34:47;;;;;;;34.73;18.03;;;2.60;99.90;;;;;;5113229;28;20031;-72
2022/01/10 06:37:13;;;;;;;40.57;18.83;;;2.50;99.90;;;;;;5113917;28;20364;-72
2022/01/10 06:39:39;;;;;;;37.10;17.73;;;2.60;99.90;;;;;;5095507;28;20521;-72
2022/01/10 06:42:05;;;;;;;31.20;18.43;;;2.60;99.90;;;;;;5112794;28;20024;-72
2022/01/10 06:44:31;;;;;;;35.33;17.17;;;2.60;99.90;;;;;;5113713;28;20120;-72
2022/01/10 06:46:57;;;;;;;32.77;18.03;;;2.60;99.90;;;;;;5094938;28;20499;-72
2022/01/10 06:49:23;;;;;;;31.70;17.47;;;2.60;99.90;;;;;;5078689;28;20028;-72
2022/01/10 06:51:49;;;;;;;36.83;18.10;;;2.60;99.90;;;;;;5112453;28;20024;-72
2022/01/10 06:54:15;;;;;;;34.43;17.10;;;2.60;99.90;;;;;;5106875;28;20023;-72
2022/01/10 06:56:41;;;;;;;31.00;16.57;;;2.60;99.90;;;;;;5112726;28;20134;-73
2022/01/10 06:59:07;;;;;;;32.37;17.43;;;2.70;99.90;;;;;;5111826;28;20173;-73
2022/01/10 07:01:34;;;;;;;30.03;17.33;;;2.60;99.90;;;;;;5112593;28;20093;-73
2022/01/10 07:03:59;;;;;;;31.73;18.07;;;2.60;99.90;;;;;;5112119;28;20027;-72
2022/01/10 07:06:25;;;;;;;32.50;17.27;;;2.70;99.90;;;;;;5111802;28;20336;-72
2022/01/10 07:08:51;;;;;;;29.27;17.93;;;2.70;99.90;;;;;;5112051;28;20463;-74
2022/01/10 07:11:17;;;;;;;32.50;18.07;;;2.70;99.90;;;;;;5094428;28;20032;-72
2022/01/10 07:13:43;;;;;;;30.70;17.67;;;2.70;99.90;;;;;;5112892;28;20023;-72
2022/01/10 07:16:08;;;;;;;31.43;18.50;;;2.70;99.90;;;;;;5111978;28;20081;-73
2022/01/10 07:18:34;;;;;;;32.40;18.90;;;2.70;99.90;;;;;;5111953;28;20042;-78
2022/01/10 07:21:00;;;;;;;33.37;18.13;;;2.70;99.90;;;;;;5111619;28;20051;-76
2022/01/10 07:23:25;;;;;;;30.70;18.23;;;2.70;99.90;;;;;;5111956;28;20019;-76
2022/01/10 07:25:51;;;;;;;35.00;18.47;;;2.70;99.90;;;;;;5111525;28;20168;-75
2022/01/10 07:28:17;;;;;;;34.60;19.03;;;2.70;99.90;;;;;;5111889;28;20039;-75
2022/01/10 07:30:43;;;;;;;36.03;17.97;;;2.70;99.90;;;;;;5112784;28;20019;-76
2022/01/10 07:33:09;;;;;;;29.10;16.63;;;2.70;99.90;;;;;;5098368;28;20028;-76
2022/01/10 07:35:34;;;;;;;34.80;18.37;;;2.70;99.90;;;;;;5107719;28;20074;-77
2022/01/10 07:38:00;;;;;;;34.37;18.47;;;2.70;99.90;;;;;;5078337;28;20035;-77
2022/01/10 07:40:26;;;;;;;33.10;16.83;;;2.60;99.90;;;;;;5091279;28;20030;-76
2022/01/10 07:42:52;;;;;;;34.10;18.03;;;2.70;99.90;;;;;;5093936;28;20028;-76
2022/01/10 07:45:18;;;;;;;32.67;17.67;;;2.80;99.90;;;;;;5112286;28;20035;-76
2022/01/10 07:47:44;;;;;;;30.03;17.30;;;2.70;99.90;;;;;;5104681;28;20020;-76
2022/01/10 07:50:10;;;;;;;33.17;16.77;;;2.70;99.90;;;;;;5117228;28;20467;-77
2022/01/10 07:52:35;;;;;;;33.20;18.77;;;2.60;99.90;;;;;;5117054;28;20036;-76
2022/01/10 07:55:01;;;;;;;34.33;18.30;;;2.60;99.90;;;;;;5099136;28;20055;-76
2022/01/10 07:57:28;;;;;;;34.00;17.50;;;2.60;99.90;;;;;;5098746;28;20044;-76
2022/01/10 07:59:53;;;;;;;33.53;18.40;;;2.60;99.90;;;;;;5115633;28;20084;-76
2022/01/10 08:02:21;;;;;;;32.10;18.53;;;2.60;99.90;;;;;;5116384;28;20115;-76
2022/01/10 08:04:47;;;;;;;32.10;18.37;;;2.60;99.90;;;;;;5115856;28;20046;-77
2022/01/10 08:07:13;;;;;;;32.20;18.77;;;2.70;99.90;;;;;;5115200;28;20034;-76
2022/01/10 08:09:38;;;;;;;36.27;17.37;;;2.70;99.90;;;;;;5116662;28;20483;-76
2022/01/10 08:12:05;;;;;;;28.93;18.00;;;2.60;99.90;;;;;;5115474;28;20030;-76
2022/01/10 08:14:31;;;;;;;31.67;17.50;;;2.60;99.90;;;;;;5115364;28;20023;-76
2022/01/10 08:16:58;;;;;;;29.67;16.70;;;2.60;99.90;;;;;;5115362;28;20428;-76
2022/01/10 08:19:24;;;;;;;36.23;19.17;;;2.60;99.90;;;;;;5114964;28;20023;-77
2022/01/10 08:21:50;;;;;;;32.33;19.10;;;2.60;99.90;;;;;;5114903;28;20032;-76
2022/01/10 08:24:16;;;;;;;34.53;18.00;;;2.70;99.90;;;;;;5115854;28;20528;-76
2022/01/10 08:26:42;;;;;;;38.93;19.03;;;2.70;99.90;;;;;;5116308;28;20028;-76
2022/01/10 08:29:08;;;;;;;35.03;17.97;;;2.70;99.90;;;;;;5115053;28;20367;-76
2022/01/10 08:31:34;;;;;;;31.17;18.23;;;2.70;99.90;;;;;;5115063;28;20123;-77
2022/01/10 08:34:03;;;;;;;36.77;18.20;;;2.80;99.90;;;;;;5098228;28;20435;-76
2022/01/10 08:36:28;;;;;;;31.30;19.27;;;2.90;99.90;;;;;;5114947;28;20020;-76
2022/01/10 08:38:55;;;;;;;33.83;19.10;;;2.80;99.90;;;;;;5114350;28;20038;-76
2022/01/10 08:41:21;;;;;;;29.50;18.07;;;2.90;99.90;;;;;;5109338;28;20028;-76
2022/01/10 08:43:47;;;;;;;33.50;18.10;;;3.00;99.90;;;;;;5114753;28;20059;-76
2022/01/10 08:46:12;;;;;;;32.27;19.10;;;3.00;99.90;;;;;;5099126;28;20067;-77
2022/01/10 08:48:39;;;;;;;31.33;17.93;;;3.00;99.90;;;;;;5094619;28;20077;-76
2022/01/10 08:51:04;;;;;;;38.10;19.37;;;3.00;99.90;;;;;;5078075;28;20119;-76
2022/01/10 08:53:30;;;;;;;34.80;18.60;;;3.00;99.90;;;;;;5094869;28;20099;-77
2022/01/10 08:55:55;;;;;;;33.40;19.23;;;3.10;99.90;;;;;;5094457;28;20195;-76
2022/01/10 08:58:22;;;;;;;36.33;20.00;;;3.10;99.90;;;;;;5095729;28;20052;-77
2022/01/10 09:00:48;;;;;;;30.47;17.23;;;3.20;99.90;;;;;;5094208;28;20043;-77
2022/01/10 09:03:14;;;;;;;31.90;18.63;;;3.20;99.90;;;;;;5095583;28;20099;-77
2022/01/10 09:05:39;;;;;;;34.53;18.77;;;3.20;99.90;;;;;;5110515;28;20032;-76
2022/01/10 09:08:06;;;;;;;27.43;17.93;;;3.30;99.90;;;;;;5114365;28;20031;-76
2022/01/10 09:10:32;;;;;;;32.90;19.67;;;3.30;99.90;;;;;;5097058;28;20031;-77
2022/01/10 09:12:58;;;;;;;33.43;19.37;;;3.30;99.90;;;;;;5115731;28;20077;-77
2022/01/10 09:15:24;;;;;;;36.13;19.20;;;3.30;99.90;;;;;;5114334;28;20043;-76
2022/01/10 09:17:50;;;;;;;35.40;19.50;;;3.40;99.90;;;;;;5107850;28;20484;-76
2022/01/10 09:20:15;;;;;;;28.23;18.83;;;3.40;99.90;;;;;;5114105;28;20032;-76
2022/01/10 09:22:41;;;;;;;36.03;19.77;;;3.40;99.90;;;;;;5115344;28;20061;-76
2022/01/10 09:25:08;;;;;;;30.63;19.07;;;3.40;99.90;;;;;;5092293;28;20024;-77
2022/01/10 09:27:33;;;;;;;31.33;19.33;;;3.50;99.90;;;;;;5094722;28;20009;-76
2022/01/10 09:29:59;;;;;;;36.20;19.73;;;3.40;99.90;;;;;;5093332;28;20024;-77
2022/01/10 09:32:25;;;;;;;34.20;20.13;;;3.50;99.90;;;;;;5104848;28;20093;-76
2022/01/10 09:34:50;;;;;;;32.43;20.20;;;3.60;99.90;;;;;;5113760;28;20043;-77
2022/01/10 09:37:16;;;;;;;33.87;18.73;;;3.60;99.90;;;;;;5111660;28;20068;-76
2022/01/10 09:39:42;;;;;;;36.93;19.97;;;3.70;99.90;;;;;;5102317;28;20012;-76
2022/01/10 09:42:09;;;;;;;35.33;19.90;;;3.70;99.90;;;;;;5096453;28;20028;-76
2022/01/10 09:44:35;;;;;;;34.00;19.13;;;3.80;99.90;;;;;;5096922;28;20028;-76
2022/01/10 09:47:02;;;;;;;37.87;20.10;;;3.80;99.90;;;;;;5076220;28;20349;-76
2022/01/10 09:49:27;;;;;;;30.77;18.60;;;3.90;99.90;;;;;;5110571;28;20149;-76
2022/01/10 09:51:53;;;;;;;32.00;18.33;;;3.90;99.90;;;;;;5113444;28;20499;-76
2022/01/10 09:54:19;;;;;;;32.13;18.70;;;4.00;99.90;;;;;;5085906;28;20042;-76
2022/01/10 09:56:49;;;;;;;34.37;19.20;;;4.10;99.90;;;;;;5114695;28;20046;-76
2022/01/10 09:59:15;;;;;;;33.60;19.50;;;4.10;99.90;;;;;;5113296;28;20076;-76
2022/01/10 10:01:42;;;;;;;32.67;18.27;;;4.20;99.90;;;;;;5114282;28;20031;-76
2022/01/10 10:04:08;;;;;;;30.97;17.37;;;4.30;99.90;;;;;;5110392;28;20174;-76
2022/01/10 10:06:34;;;;;;;29.60;15.33;;;4.60;99.90;;;;;;5106914;28;20114;-76
2022/01/10 10:09:03;;;;;;;27.17;15.50;;;5.00;99.90;;;;;;5092979;28;20478;-77
2022/01/10 10:11:37;;;;;;;27.47;15.20;;;5.40;99.90;;;;;;5094056;28;20108;-76
2022/01/10 10:14:04;;;;;;;25.63;14.50;;;5.70;99.90;;;;;;5105523;28;20051;-77
2022/01/10 10:16:32;;;;;;;23.37;14.33;;;5.80;99.90;;;;;;5096323;28;20472;-76
2022/01/10 10:18:59;;;;;;;28.37;14.27;;;6.00;99.90;;;;;;5113359;28;20073;-77
2022/01/10 10:21:24;;;;;;;26.17;15.17;;;6.00;99.90;;;;;;5112883;28;20031;-76
2022/01/10 10:23:50;;;;;;;29.70;15.07;;;6.10;99.90;;;;;;5078909;28;20397;-77
2022/01/10 10:26:23;;;;;;;26.27;14.90;;;6.10;99.90;;;;;;5095583;28;20412;-77
2022/01/10 10:28:50;;;;;;;25.10;14.52;;;6.20;99.90;;;;;;5114020;28;20054;-77
2022/01/10 10:31:41;;;;;;;31.13;13.87;;;6.50;99.90;;;;;;5092180;28;20119;-76
2022/01/10 10:34:06;;;;;;;27.23;12.70;;;6.90;99.90;;;;;;5111515;28;20499;-77
2022/01/10 10:36:34;;;;;;;26.03;14.00;;;7.20;99.90;;;;;;5075624;28;20020;-76
2022/01/10 10:39:03;;;;;;;21.50;12.67;;;7.40;99.90;;;;;;5112327;28;20047;-76
2022/01/10 10:41:29;;;;;;;22.23;12.60;;;7.70;99.90;;;;;;5109080;28;20123;-77
2022/01/10 10:43:55;;;;;;;21.13;12.68;;;8.10;99.90;;;;;;5112233;28;20471;-77
2022/01/10 10:46:26;;;;;;;22.95;11.82;;;8.50;99.90;;;;;;5096715;28;20461;-77
2022/01/10 10:48:56;;;;;;;20.27;11.27;;;8.70;99.90;;;;;;5076136;28;20033;-77
2022/01/10 10:51:25;;;;;;;25.40;12.82;;;8.70;99.90;;;;;;5109726;28;20024;-77
2022/01/10 10:53:51;;;;;;;24.08;12.63;;;8.70;99.00;;;;;;5113477;28;20036;-77
2022/01/10 10:56:17;;;;;;;25.57;13.27;;;8.80;98.70;;;;;;5112686;28;20031;-77
2022/01/10 10:58:43;;;;;;;20.27;12.13;;;9.00;98.10;;;;;;5112390;28;20036;-77
2022/01/10 11:01:08;;;;;;;19.38;10.40;;;9.30;98.20;;;;;;5095562;28;20035;-77
2022/01/10 11:03:34;;;;;;;22.38;11.07;;;9.70;98.40;;;;;;5113574;28;20426;-77
2022/01/10 11:06:03;;;;;;;22.48;9.93;;;10.10;98.40;;;;;;5112113;28;20028;-77
2022/01/10 11:08:31;;;;;;;20.77;10.23;;;10.50;98.20;;;;;;5110699;28;20028;-77
2022/01/10 11:11:01;;;;;;;20.52;9.65;;;11.00;97.90;;;;;;5103649;28;20110;-77
2022/01/10 11:13:28;;;;;;;16.98;8.65;;;11.50;97.70;;;;;;5112205;28;20483;-77
2022/01/10 11:15:56;;;;;;;20.10;9.35;;;12.00;97.40;;;;;;5113198;28;20422;-77
2022/01/10 11:18:23;;;;;;;16.33;9.15;;;12.50;96.40;;;;;;5115218;28;20086;-77
2022/01/10 11:20:51;;;;;;;16.55;9.63;;;12.80;94.20;;;;;;5117320;28;20036;-77
2022/01/10 11:23:17;;;;;;;19.02;9.95;;;13.10;93.10;;;;;;5115470;28;20391;-77
2022/01/10 11:25:43;;;;;;;20.20;10.23;;;13.20;92.10;;;;;;5114125;28;20034;-77
2022/01/10 11:28:10;;;;;;;18.73;9.48;;;13.30;91.50;;;;;;5116386;28;20024;-74
2022/01/10 11:30:37;;;;;;;18.25;9.93;;;13.60;91.30;;;;;;5116713;28;20023;-74
2022/01/10 11:33:07;;;;;;;14.52;8.00;;;14.00;89.30;;;;;;5105550;28;20031;-74
2022/01/10 11:35:37;;;;;;;19.92;10.05;;;14.10;87.40;;;;;;5104498;28;20031;-74
2022/01/10 11:38:30;;;;;;;16.15;8.65;;;14.00;85.50;;;;;;5098632;28;20078;-74
2022/01/10 11:40:58;;;;;;;15.63;8.68;;;13.80;83.90;;;;;;5106141;28;20059;-74
2022/01/10 11:43:29;;;;;;;16.20;9.43;;;13.80;83.30;;;;;;5115927;28;20031;-74
2022/01/10 11:46:27;;;;;;;17.10;9.88;;;13.70;81.80;;;;;;5102119;28;20162;-75
2022/01/10 11:49:08;;;;;;;16.85;8.77;;;13.90;78.60;;;;;;5092451;28;20488;-74
2022/01/10 11:51:41;;;;;;;15.70;9.18;;;13.90;78.30;;;;;;5105576;28;20023;-74
2022/01/10 11:54:26;;;;;;;19.83;9.57;;;14.00;78.20;;;;;;5113215;28;20686;-74
2022/01/10 11:57:21;;;;;;;19.65;9.35;;;13.90;78.10;;;;;;5110393;28;20424;-77
2022/01/10 11:59:53;;;;;;;17.83;8.95;;;13.80;76.60;;;;;;5111199;28;20044;-77
2022/01/10 12:02:23;;;;;;;19.92;9.35;;;13.90;76.90;;;;;;5108718;28;20521;-78
2022/01/10 12:04:58;;;;;;;15.27;8.40;;;14.00;75.90;;;;;;5116206;28;20046;-77
2022/01/10 12:07:26;;;;;;;19.10;9.52;;;14.20;75.90;;;;;;5115296;28;20024;-78
2022/01/10 12:09:53;;;;;;;18.88;10.02;;;14.40;75.80;;;;;;5115896;28;20032;-77
2022/01/10 12:12:20;;;;;;;18.80;10.32;;;14.60;74.70;;;;;;5101588;28;20434;-77
2022/01/10 12:14:47;;;;;;;14.88;8.48;;;14.80;74.40;;;;;;5096339;28;20032;-77
2022/01/10 12:17:14;;;;;;;20.08;9.55;;;15.10;74.10;;;;;;5116536;28;20066;-78
2022/01/10 12:19:40;;;;;;;14.07;7.90;;;15.50;73.20;;;;;;5116193;28;20023;-78
2022/01/10 12:22:07;;;;;;;17.58;8.73;;;15.80;72.20;;;;;;5103127;28;20364;-78
2022/01/10 12:24:37;;;;;;;16.30;8.73;;;16.10;70.50;;;;;;5112257;28;20031;-77
2022/01/10 12:27:04;;;;;;;13.80;8.63;;;16.30;69.30;;;;;;5082171;28;20024;-77
2022/01/10 12:29:31;;;;;;;14.88;8.10;;;16.60;68.20;;;;;;5102654;28;20027;-78
2022/01/10 12:31:58;;;;;;;16.52;8.60;;;16.70;67.50;;;;;;5109005;28;20120;-77
2022/01/10 12:34:24;;;;;;;15.43;8.27;;;17.00;66.40;;;;;;5110343;28;20377;-77
2022/01/10 12:36:50;;;;;;;14.50;8.13;;;17.10;65.60;;;;;;5112558;28;20039;-78
2022/01/10 12:39:25;;;;;;;16.20;8.73;;;17.30;65.20;;;;;;5094595;28;20024;-78
2022/01/10 12:41:51;;;;;;;12.55;7.30;;;17.50;63.70;;;;;;5099803;28;20059;-78
2022/01/10 12:44:18;;;;;;;14.60;8.98;;;17.80;63.20;;;;;;5115964;28;20032;-78
2022/01/10 12:46:44;;;;;;;14.52;8.48;;;18.00;61.50;;;;;;5096924;28;20073;-78
2022/01/10 12:49:13;;;;;;;15.52;8.57;;;18.20;60.50;;;;;;5104082;28;20102;-78